Scroll down
FLIGHT INFORMATION
Federal Express (FedEx)

FDX1712

At Arrival Gate

KSEA
 PAFA
DATE: 2022-07-19
GATE:  -
GATE DEPARTURE: 18:47
TAKEOFF: 19:05
DATE: 2022-07-19
GATE: CARGO5
LANDING: 22:16
GATE ARRIVAL: 22:22
FLIGHT DATA
Crew: 
Speed: 
497 kts
Altitude: 
36,025 ft
Stage Length: 
1,329.0 nm
Block Time: 
3.5 hrs
Flight Time: 
3.2 hrs
Fuel Used: 
53,816 lb
Cleared Route: KSEA DODVE WUREL ATOME BREMM BANGR ARRIE DUGGS HANRY CFSTF ANN GESTI DOOZI LVD HOODS AYZOL RDFLG HRDNG RNDRR ROAAD RW20R
TRACK DATA
50,000 ft 1,000 kts
AIRCRAFT INFO AND CUMULATIVE STATS
Aircraft Type: 
B77LF
Registration: 
SELCAL: 
CMDL
MSN/LN: 
38969 / 947
Total Flights: 
5
Total Block Time: 
20.5 hrs
Total Flight Time: 
19 hrs
Total Fuel Used: 
618,564 lb
DATALINK LOG | Newest first | Current as of: 2022-08-16 07:36:53
LABEL SEQUENCE CONTENT Dn/Up
QD243922:22 17.9▼ Dn
QC183422:16▼ Dn
GA3057CARGO STAND CARGO5▲ Up
GR3047PAFA 22:14 MAAS 00 YP/UM 0/0 WCHR/S/C 0/0/0 HI-VAL NO▼ Dn
2U2424PAFA 192053Z 18006KT 10SM FEW016 BKN055 BKN110 13/08 A2976 RMK AO2 SLP081 T01330083 51008 $▲ Up
2S2643PAFA▼ Dn
2U1819PAFA 191853Z 21004KT 10SM FEW014 SCT060 BKN090 13/08 A2974 RMK AO2 SLP075 T01280083 $▲ Up
2S2043PAFA▼ Dn
QB072919:05▼ Dn
QA491218:47 71.9▼ Dn
A32853CLEARED TO PAFA VIA BANGR9 ARRIE DUGGS J502 HOODS AYZOL RDFLG HRDNG3. SQUAWK 3624.▲ Up
Q02751[LINK ACK]▲ Up
Q02751[LINK TEST]▼ Dn


AIRCRAFT HISTORY
FLIGHT DATE FLIGHT NO. ORIGIN DESTINATION CLEARED ROUTE BLOCK TIME FLIGHT TIME FUEL USED PILOT
2022-07-25FDX9842KDEN KMEM KDEN RZC MARBI IGLOO SAUCC BRBBQ JAMLA BUDEE RW092 hrs1.8 hrs283,333 lbAllan Burek
2022-07-23FDX1820CYEG KDEN CYEG KEKBI JEVON OMROD TOVIS YEA BIL TOFUU GNOLA HIPEE FOLSM BBOCO FLATI ELLDO TOTTT YESSS BAACK BABAA HIMOM CRUUP RW35L2.7 hrs2.2 hrs39,489 lbPete L.
2022-07-20FDX820PAFA CYEG PAFA SKIMO HRDNG RDFLG ORT CFDJJ BIBEM YXY YQH YYE MERCH YPE AROUK TETAG SETBU PESGO VIPSO NOTIG KEVRA OMENA RW303.1 hrs2.8 hrs56,161 lbPete L.
2022-07-19FDX1712KSEA PAFA KSEA DODVE WUREL ATOME BREMM BANGR ARRIE DUGGS HANRY CFSTF ANN GESTI DOOZI LVD HOODS AYZOL RDFLG HRDNG RNDRR ROAAD RW20R3.5 hrs3.2 hrs53,816 lbPete L.
2021-08-06FDX806RJBB KSEA RJBB TONDA KEC KILAP ISEBI MOE ONASU KAGIS AVBET LEPKI 41E60 42E70 44E80 46N70 48N60 48N50 48N40 48N30 TOU KSEA9.3 hrs9.1 hrs185,765 lbCharles Harris